Time;durP1;ratioP1;P1;durP2;ratioP2;P2;SDS_P1;SDS_P2;PMS_P1;PMS_P2;Temp;Humidity;BMP_temperature;BMP_pressure;BME280_temperature;BME280_humidity;BME280_pressure;Samples;Min_cycle;Max_cycle;Signal;HPM_P1;HPM_P2
2022/08/07 00:01:19;;;;;;;20.40;12.48;;;14.20;99.90;;;;;;5076285;28;20534;-67
2022/08/07 00:03:46;;;;;;;19.85;11.85;;;14.20;99.90;;;;;;5076564;28;20040;-68
2022/08/07 00:06:11;;;;;;;19.23;10.82;;;14.20;99.90;;;;;;5076438;28;20028;-68
2022/08/07 00:08:37;;;;;;;16.50;9.82;;;14.20;99.90;;;;;;5076127;28;20024;-68
2022/08/07 00:11:04;;;;;;;15.55;8.98;;;14.10;99.90;;;;;;5076385;28;20462;-68
2022/08/07 00:13:31;;;;;;;16.23;9.68;;;14.10;99.90;;;;;;5076164;28;20021;-67
2022/08/07 00:15:57;;;;;;;19.90;9.88;;;14.10;99.90;;;;;;5076341;28;20391;-67
2022/08/07 00:18:24;;;;;;;14.73;9.77;;;14.10;99.90;;;;;;5076406;28;20025;-69
2022/08/07 00:20:52;;;;;;;16.98;10.52;;;14.00;99.90;;;;;;5076073;28;20139;-67
2022/08/07 00:23:18;;;;;;;17.80;8.55;;;14.10;99.90;;;;;;5076261;28;20039;-71
2022/08/07 00:25:43;;;;;;;16.73;8.80;;;14.00;99.90;;;;;;5076034;28;20447;-68
2022/08/07 00:28:09;;;;;;;14.00;8.02;;;14.00;99.90;;;;;;5075989;28;20020;-67
2022/08/07 00:30:34;;;;;;;13.93;7.82;;;13.90;99.90;;;;;;5075843;28;20134;-67
2022/08/07 00:33:01;;;;;;;13.38;6.50;;;13.90;99.90;;;;;;5075967;28;20400;-70
2022/08/07 00:35:27;;;;;;;11.25;6.57;;;13.90;99.90;;;;;;5075518;28;20027;-70
2022/08/07 00:37:53;;;;;;;11.25;6.20;;;13.90;99.90;;;;;;5075835;28;20025;-69
2022/08/07 00:40:19;;;;;;;11.30;6.53;;;13.80;99.90;;;;;;5074448;28;20062;-70
2022/08/07 00:42:44;;;;;;;13.63;7.30;;;13.80;99.90;;;;;;5075871;28;20017;-67
2022/08/07 00:45:10;;;;;;;11.98;6.65;;;13.80;99.90;;;;;;5075770;28;20020;-70
2022/08/07 00:47:36;;;;;;;11.35;6.30;;;13.80;99.90;;;;;;5074320;28;20111;-68
2022/08/07 00:50:03;;;;;;;14.27;6.63;;;13.80;99.90;;;;;;5075408;28;20107;-71
2022/08/07 00:52:29;;;;;;;12.45;5.88;;;13.80;99.90;;;;;;5095627;28;20028;-68
2022/08/07 00:54:55;;;;;;;12.35;6.32;;;13.70;99.90;;;;;;5095444;28;20125;-66
2022/08/07 00:57:22;;;;;;;11.65;6.32;;;13.70;99.90;;;;;;5095336;28;20123;-67
2022/08/07 00:59:48;;;;;;;15.77;7.13;;;13.70;99.90;;;;;;5095604;28;20119;-70
2022/08/07 01:02:13;;;;;;;14.90;8.00;;;13.70;99.90;;;;;;5095360;28;20489;-68
2022/08/07 01:04:39;;;;;;;15.85;9.27;;;13.70;99.90;;;;;;5094884;28;20068;-68
2022/08/07 01:07:05;;;;;;;19.38;11.07;;;13.60;99.90;;;;;;5095215;28;20051;-69
2022/08/07 01:09:31;;;;;;;19.00;10.98;;;13.60;99.90;;;;;;5094969;28;20329;-71
2022/08/07 01:11:58;;;;;;;19.13;10.00;;;13.60;99.90;;;;;;5094963;28;20028;-68
2022/08/07 01:14:24;;;;;;;18.90;10.07;;;13.60;99.90;;;;;;5095388;28;20016;-67
2022/08/07 01:16:51;;;;;;;17.98;9.15;;;13.60;99.90;;;;;;5095174;28;20050;-67
2022/08/07 01:19:18;;;;;;;16.08;8.68;;;13.50;99.90;;;;;;5095071;28;20110;-68
2022/08/07 01:21:46;;;;;;;16.52;9.18;;;13.50;99.90;;;;;;5095054;28;20024;-68
2022/08/07 01:24:12;;;;;;;17.13;9.07;;;13.50;99.90;;;;;;5094601;28;20428;-68
2022/08/07 01:26:38;;;;;;;15.25;8.80;;;13.50;99.90;;;;;;5094856;28;20020;-70
2022/08/07 01:29:04;;;;;;;16.98;8.88;;;13.40;99.90;;;;;;5094513;28;20504;-68
2022/08/07 01:31:30;;;;;;;13.55;8.23;;;13.40;99.90;;;;;;5094840;28;20122;-68
2022/08/07 01:33:57;;;;;;;14.15;8.15;;;13.40;99.90;;;;;;5094702;28;20153;-69
2022/08/07 01:36:24;;;;;;;13.50;6.75;;;13.40;99.90;;;;;;5094563;28;20043;-68
2022/08/07 01:38:50;;;;;;;10.18;5.90;;;13.40;99.90;;;;;;5094645;28;20079;-70
2022/08/07 01:41:19;;;;;;;11.55;5.90;;;13.30;99.90;;;;;;5094650;28;20040;-68
2022/08/07 01:43:45;;;;;;;11.07;5.63;;;13.30;99.90;;;;;;5094631;28;20043;-68
2022/08/07 01:46:11;;;;;;;10.35;5.20;;;13.30;99.90;;;;;;5081167;28;20027;-71
2022/08/07 01:48:37;;;;;;;7.85;4.55;;;13.30;99.90;;;;;;5073931;28;20379;-67
2022/08/07 01:51:06;;;;;;;9.73;4.90;;;13.30;99.90;;;;;;5081340;28;20044;-67
2022/08/07 01:53:38;;;;;;;12.60;4.53;;;13.30;99.90;;;;;;5092317;28;20051;-71
2022/08/07 01:56:08;;;;;;;;;;;13.30;99.90;;;;;;5093832;28;20032;-68
2022/08/07 01:58:40;;;;;;;11.20;5.22;;;13.30;99.90;;;;;;5094084;28;19912;-68
2022/08/07 02:01:14;;;;;;;7.40;4.65;;;13.30;99.90;;;;;;5093798;28;20032;-72
2022/08/07 02:03:45;;;;;;;8.98;4.60;;;13.30;99.90;;;;;;5094243;28;20028;-67
2022/08/07 02:06:15;;;;;;;9.98;4.97;;;13.30;99.90;;;;;;5094525;28;20024;-68
2022/08/07 02:08:43;;;;;;;8.52;4.95;;;13.30;99.90;;;;;;5094407;28;20357;-67
2022/08/07 02:11:10;;;;;;;9.00;4.53;;;13.30;99.90;;;;;;5093971;28;20244;-67
2022/08/07 02:13:37;;;;;;;8.75;4.80;;;13.20;99.90;;;;;;5093841;28;20023;-67
2022/08/07 02:16:05;;;;;;;8.77;4.10;;;13.20;99.90;;;;;;5094031;28;20035;-68
2022/08/07 02:18:35;;;;;;;7.88;4.32;;;13.20;99.90;;;;;;5093744;28;20080;-68
2022/08/07 02:21:02;;;;;;;10.68;4.25;;;13.10;99.90;;;;;;5093749;28;20042;-69
2022/08/07 02:23:32;;;;;;;8.32;4.25;;;13.10;99.90;;;;;;5094278;28;20041;-68
2022/08/07 02:25:59;;;;;;;12.07;4.50;;;13.10;99.90;;;;;;5093607;28;20046;-70
2022/08/07 02:28:28;;;;;;;7.25;4.20;;;13.10;99.90;;;;;;5093748;28;20066;-70
2022/08/07 02:30:56;;;;;;;10.52;3.90;;;13.10;99.90;;;;;;5092267;28;20019;-67
2022/08/07 02:33:26;;;;;;;8.35;3.72;;;13.00;99.90;;;;;;5093352;28;20024;-67
2022/08/07 02:35:52;;;;;;;6.90;3.55;;;13.00;99.90;;;;;;5093288;28;20044;-68
2022/08/07 02:38:20;;;;;;;6.68;4.00;;;13.00;99.90;;;;;;5093618;28;20028;-70
2022/08/07 02:40:46;;;;;;;8.80;4.43;;;13.00;99.90;;;;;;5092123;28;20477;-67
2022/08/07 02:43:14;;;;;;;7.03;3.85;;;13.00;99.90;;;;;;5093702;28;20052;-69
2022/08/07 02:45:41;;;;;;;7.90;3.97;;;12.90;99.90;;;;;;5093411;28;20031;-67
2022/08/07 02:48:08;;;;;;;8.80;4.38;;;13.00;99.90;;;;;;5091684;28;20031;-67
2022/08/07 02:50:40;;;;;;;6.90;3.95;;;12.90;99.90;;;;;;5093490;28;20502;-68
2022/08/07 02:53:10;;;;;;;7.90;4.43;;;12.90;99.90;;;;;;5093257;28;20107;-67
2022/08/07 02:55:41;;;;;;;8.98;4.00;;;12.90;99.90;;;;;;5093320;28;20034;-68
2022/08/07 02:58:10;;;;;;;8.98;4.28;;;12.80;99.90;;;;;;5093217;28;20048;-69
2022/08/07 03:00:37;;;;;;;9.88;4.78;;;12.80;99.90;;;;;;5093283;28;20438;-68
2022/08/07 03:03:06;;;;;;;9.98;4.40;;;12.80;99.90;;;;;;5093042;28;20027;-71
2022/08/07 03:05:32;;;;;;;9.43;4.65;;;12.80;99.90;;;;;;5092210;28;20062;-66
2022/08/07 03:07:58;;;;;;;7.95;4.32;;;12.80;99.90;;;;;;5093151;28;20019;-67
2022/08/07 03:10:24;;;;;;;9.45;4.43;;;12.70;99.90;;;;;;5092911;28;20318;-68
2022/08/07 03:12:51;;;;;;;10.30;4.70;;;12.70;99.90;;;;;;5092280;28;20046;-67
2022/08/07 03:15:18;;;;;;;9.38;4.68;;;12.70;99.90;;;;;;5092802;28;20103;-69
2022/08/07 03:17:44;;;;;;;9.20;4.43;;;12.70;99.90;;;;;;5092688;28;20024;-68
2022/08/07 03:20:11;;;;;;;8.25;4.18;;;12.70;99.90;;;;;;5093091;28;20067;-68
2022/08/07 03:22:39;;;;;;;9.50;4.72;;;12.60;99.90;;;;;;5093213;28;20099;-69
2022/08/07 03:25:05;;;;;;;8.40;4.90;;;12.60;99.90;;;;;;5092942;28;20016;-66
2022/08/07 03:27:32;;;;;;;9.82;4.65;;;12.60;99.90;;;;;;5092902;28;20024;-70
2022/08/07 03:29:59;;;;;;;7.65;4.15;;;12.60;99.90;;;;;;5093159;28;20020;-68
2022/08/07 03:32:29;;;;;;;9.80;4.70;;;12.60;99.90;;;;;;5092926;28;20089;-67
2022/08/07 03:34:59;;;;;;;9.65;4.30;;;12.60;99.90;;;;;;5093393;28;20384;-67
2022/08/07 03:37:26;;;;;;;8.98;4.38;;;12.60;99.90;;;;;;5092707;28;20023;-71
2022/08/07 03:39:52;;;;;;;8.55;4.32;;;12.60;99.90;;;;;;5093005;28;20039;-69
2022/08/07 03:42:19;;;;;;;9.93;4.93;;;12.60;99.90;;;;;;5091675;28;20351;-71
2022/08/07 03:44:46;;;;;;;7.05;3.88;;;12.50;99.90;;;;;;5092756;28;20080;-69
2022/08/07 03:47:12;;;;;;;9.43;4.53;;;12.50;99.90;;;;;;5092610;28;20031;-66
2022/08/07 03:49:38;;;;;;;8.30;4.50;;;12.50;99.90;;;;;;5092611;28;20153;-68
2022/08/07 03:52:05;;;;;;;7.55;3.92;;;12.50;99.90;;;;;;5091271;28;20363;-69
2022/08/07 03:54:30;;;;;;;8.35;4.53;;;12.50;99.90;;;;;;5092479;28;20469;-69
2022/08/07 03:56:57;;;;;;;11.00;4.90;;;12.50;99.90;;;;;;5092718;28;20021;-68
2022/08/07 03:59:25;;;;;;;11.05;4.60;;;12.50;99.90;;;;;;5092539;28;20016;-68
2022/08/07 04:01:53;;;;;;;8.63;4.15;;;12.50;99.90;;;;;;5092758;28;20082;-70
2022/08/07 04:04:19;;;;;;;8.55;4.57;;;12.50;99.90;;;;;;5092563;28;20035;-70
2022/08/07 04:06:44;;;;;;;10.45;5.07;;;12.50;99.90;;;;;;5092740;28;20038;-68
2022/08/07 04:09:11;;;;;;;7.80;4.68;;;12.50;99.90;;;;;;5091158;28;20473;-67
2022/08/07 04:11:37;;;;;;;10.38;5.10;;;12.50;99.90;;;;;;5092410;28;20073;-67
2022/08/07 04:14:03;;;;;;;9.38;4.70;;;12.50;99.90;;;;;;5091994;28;20408;-69
2022/08/07 04:16:29;;;;;;;10.90;4.70;;;12.50;99.90;;;;;;5094317;28;20016;-67
2022/08/07 04:18:55;;;;;;;9.27;4.47;;;12.50;99.90;;;;;;5095941;28;20061;-71
2022/08/07 04:21:20;;;;;;;13.80;6.18;;;12.50;99.90;;;;;;5096413;28;20040;-67
2022/08/07 04:23:47;;;;;;;10.88;4.88;;;12.50;99.90;;;;;;5096455;28;20381;-67
2022/08/07 04:26:13;;;;;;;10.65;5.38;;;12.50;99.90;;;;;;5096531;28;20066;-71
2022/08/07 04:28:42;;;;;;;10.77;5.28;;;12.50;99.90;;;;;;5096098;28;20070;-69
2022/08/07 04:31:09;;;;;;;11.20;5.28;;;12.50;99.90;;;;;;5096194;28;20342;-68
2022/08/07 04:33:39;;;;;;;10.18;5.38;;;12.50;99.90;;;;;;5095863;28;20028;-68
2022/08/07 04:36:07;;;;;;;10.60;4.70;;;12.50;99.90;;;;;;5094430;28;20021;-71
2022/08/07 04:38:33;;;;;;;11.30;5.93;;;12.50;99.90;;;;;;5096196;28;20027;-67
2022/08/07 04:40:59;;;;;;;9.60;5.13;;;12.50;99.90;;;;;;5095507;28;20028;-71
2022/08/07 04:43:32;;;;;;;10.38;5.03;;;12.50;99.90;;;;;;5095610;28;20062;-68
2022/08/07 04:46:17;;;;;;;11.95;5.50;;;12.50;99.90;;;;;;5095714;28;20038;-70
2022/08/07 04:49:12;;;;;;;11.40;5.55;;;12.60;99.90;;;;;;5095535;28;20131;-68
2022/08/07 04:51:59;;;;;;;14.02;5.50;;;12.60;99.90;;;;;;5095400;28;20099;-68
2022/08/07 04:54:30;;;;;;;12.68;5.55;;;12.60;99.90;;;;;;5095573;28;20016;-70
2022/08/07 04:57:26;;;;;;;8.95;4.93;;;12.60;99.90;;;;;;5095408;28;20472;-67
2022/08/07 05:00:07;;;;;;;11.00;5.10;;;12.70;99.90;;;;;;5095031;28;20024;-67
2022/08/07 05:02:51;;;;;;;10.63;5.13;;;12.70;99.90;;;;;;5095660;28;20042;-67
2022/08/07 05:05:35;;;;;;;10.13;4.95;;;12.80;99.90;;;;;;5094463;28;20365;-67
2022/08/07 05:08:11;;;;;;;11.00;5.55;;;12.80;99.90;;;;;;5095924;28;20054;-70
2022/08/07 05:10:42;;;;;;;10.60;5.35;;;12.80;99.90;;;;;;5096145;28;20020;-67
2022/08/07 05:13:08;;;;;;;9.18;4.88;;;12.90;99.90;;;;;;5095467;28;20114;-67
2022/08/07 05:15:40;;;;;;;13.20;5.57;;;13.00;99.90;;;;;;5095527;28;20438;-66
2022/08/07 05:18:21;;;;;;;12.85;5.47;;;13.00;99.90;;;;;;5095666;28;20100;-70
2022/08/07 05:20:51;;;;;;;11.27;5.43;;;13.10;99.90;;;;;;5095473;28;20032;-67
2022/08/07 05:23:24;;;;;;;11.07;5.50;;;13.20;99.90;;;;;;5095146;28;20024;-67
2022/08/07 05:25:51;;;;;;;14.75;6.70;;;13.30;99.90;;;;;;5095191;28;20470;-67
2022/08/07 05:28:18;;;;;;;10.52;5.25;;;13.40;99.90;;;;;;5094255;28;20023;-67
2022/08/07 05:30:45;;;;;;;13.35;5.53;;;13.50;99.90;;;;;;5095891;28;20052;-68
2022/08/07 05:33:12;;;;;;;11.38;5.65;;;13.60;99.90;;;;;;5095170;28;20034;-67
2022/08/07 05:35:39;;;;;;;11.23;5.55;;;13.70;99.90;;;;;;5095152;28;20442;-68
2022/08/07 05:38:06;;;;;;;10.73;5.35;;;13.80;99.90;;;;;;5093677;28;20016;-69
2022/08/07 05:40:35;;;;;;;11.63;5.90;;;13.90;99.90;;;;;;5094898;28;20484;-67
2022/08/07 05:43:01;;;;;;;10.18;5.88;;;14.00;99.90;;;;;;5094793;28;20027;-67
2022/08/07 05:45:27;;;;;;;14.02;5.90;;;14.10;99.90;;;;;;5094904;28;20107;-68
2022/08/07 05:47:53;;;;;;;11.85;5.72;;;14.20;99.90;;;;;;5094591;28;20020;-68
2022/08/07 05:50:20;;;;;;;11.48;5.38;;;14.30;99.90;;;;;;5094539;28;20024;-67
2022/08/07 05:52:46;;;;;;;11.75;6.03;;;14.50;99.90;;;;;;5093742;28;20031;-70
2022/08/07 05:55:11;;;;;;;10.82;5.18;;;14.60;99.90;;;;;;5094834;28;20020;-72
2022/08/07 05:57:40;;;;;;;11.00;5.22;;;14.80;99.90;;;;;;5094616;28;20558;-73
2022/08/07 06:00:07;;;;;;;11.82;5.50;;;14.90;99.90;;;;;;5094574;28;20034;-68
2022/08/07 06:02:35;;;;;;;11.32;5.25;;;15.10;99.90;;;;;;5094470;28;20437;-72
2022/08/07 06:05:10;;;;;;;8.95;5.32;;;15.30;99.90;;;;;;5094608;28;20035;-67
2022/08/07 06:07:36;;;;;;;9.73;5.40;;;15.50;99.90;;;;;;5094017;28;20527;-70
2022/08/07 06:10:03;;;;;;;10.65;5.50;;;15.70;99.90;;;;;;5094387;28;20016;-67
2022/08/07 06:12:29;;;;;;;15.27;6.75;;;15.90;99.90;;;;;;5094783;28;20034;-68
2022/08/07 06:14:56;;;;;;;12.60;6.72;;;16.20;99.90;;;;;;5092753;28;20016;-68
2022/08/07 06:17:22;;;;;;;14.98;7.03;;;16.50;99.90;;;;;;5094344;28;20413;-68
2022/08/07 06:19:48;;;;;;;14.93;7.28;;;16.80;99.90;;;;;;5094134;28;20119;-68
2022/08/07 06:22:16;;;;;;;14.68;7.43;;;17.30;99.90;;;;;;5094277;28;20098;-70
2022/08/07 06:24:42;;;;;;;13.65;6.85;;;17.80;99.90;;;;;;5094445;28;20031;-71
2022/08/07 06:27:08;;;;;;;13.48;6.38;;;18.40;99.90;;;;;;5094768;28;20020;-68
2022/08/07 06:29:33;;;;;;;17.30;6.88;;;19.10;99.90;;;;;;5093872;28;20056;-67
2022/08/07 06:31:59;;;;;;;11.65;6.32;;;19.90;99.90;;;;;;5094124;28;20051;-71
2022/08/07 06:34:26;;;;;;;12.52;6.07;;;20.80;99.90;;;;;;5094290;28;20017;-67
2022/08/07 06:36:52;;;;;;;12.75;6.50;;;21.80;99.90;;;;;;5093897;28;20023;-67
2022/08/07 06:39:18;;;;;;;11.68;5.78;;;22.80;99.50;;;;;;5093810;28;20361;-67
2022/08/07 06:42:19;;;;;;;9.63;5.40;;;23.70;97.90;;;;;;5093982;28;20036;-69
2022/08/07 06:44:48;;;;;;;12.25;6.38;;;24.90;96.30;;;;;;5093767;28;20450;-69
2022/08/07 06:47:14;;;;;;;15.45;8.23;;;25.90;92.20;;;;;;5093465;28;20020;-67
2022/08/07 06:49:40;;;;;;;12.07;7.20;;;26.60;90.40;;;;;;5093752;28;20028;-67
2022/08/07 06:52:09;;;;;;;22.63;15.93;;;27.20;88.90;;;;;;5093683;28;20145;-67
2022/08/07 06:54:36;;;;;;;12.57;7.07;;;27.90;87.80;;;;;;5093339;28;20012;-69
2022/08/07 06:57:04;;;;;;;14.43;8.52;;;28.70;85.10;;;;;;5093154;28;20089;-68
2022/08/07 06:59:34;;;;;;;8.45;5.07;;;29.30;83.30;;;;;;5093891;28;20026;-69
2022/08/07 07:02:01;;;;;;;14.88;8.73;;;30.00;81.40;;;;;;5093581;28;20028;-69
2022/08/07 07:04:29;;;;;;;10.85;5.90;;;30.70;79.70;;;;;;5093518;28;20349;-67
2022/08/07 07:06:55;;;;;;;6.65;3.90;;;31.20;77.30;;;;;;5091931;28;20052;-68
2022/08/07 07:09:29;;;;;;;7.00;3.50;;;31.50;74.40;;;;;;5093523;28;20093;-68
2022/08/07 07:12:12;;;;;;;6.38;2.92;;;31.80;73.40;;;;;;5092893;28;20378;-67
2022/08/07 07:14:46;;;;;;;6.30;3.78;;;32.00;72.10;;;;;;5093810;28;20070;-67
2022/08/07 07:17:19;;;;;;;8.38;3.90;;;32.00;69.80;;;;;;5093614;28;20024;-68
2022/08/07 07:19:51;;;;;;;6.88;3.75;;;31.70;70.30;;;;;;5092977;28;20385;-66
2022/08/07 07:22:18;;;;;;;4.80;3.33;;;31.20;70.20;;;;;;5093041;28;20095;-67
2022/08/07 07:24:44;;;;;;;6.32;4.07;;;30.60;71.80;;;;;;5089827;28;20098;-67
2022/08/07 07:27:14;;;;;;;7.07;3.67;;;30.10;72.00;;;;;;5076633;28;20480;-69
2022/08/07 07:29:46;;;;;;;8.82;3.78;;;29.60;72.30;;;;;;5092977;28;20012;-67
2022/08/07 07:32:13;;;;;;;6.25;3.13;;;29.20;73.20;;;;;;5092619;28;20394;-67
2022/08/07 07:34:43;;;;;;;6.20;3.75;;;28.70;73.80;;;;;;5091930;28;20106;-68
2022/08/07 07:37:10;;;;;;;9.45;3.70;;;28.20;74.90;;;;;;5093350;28;20058;-67
2022/08/07 07:39:37;;;;;;;8.90;3.75;;;27.60;74.80;;;;;;5093227;28;20028;-67
2022/08/07 07:42:04;;;;;;;6.18;3.50;;;27.00;76.60;;;;;;5092863;28;20462;-67
2022/08/07 07:44:31;;;;;;;12.23;4.10;;;26.50;77.70;;;;;;5091463;28;20115;-67
2022/08/07 07:46:58;;;;;;;5.93;3.50;;;25.90;79.20;;;;;;5092878;28;20413;-66
2022/08/07 07:49:26;;;;;;;8.93;4.35;;;25.50;79.90;;;;;;5092887;28;20028;-68
2022/08/07 07:51:54;;;;;;;8.00;4.03;;;25.10;81.80;;;;;;5096485;28;20027;-67
2022/08/07 07:54:21;;;;;;;10.52;4.35;;;24.70;82.00;;;;;;5097693;28;20020;-69
2022/08/07 07:56:49;;;;;;;10.45;4.50;;;24.50;83.00;;;;;;5097107;28;20020;-67
2022/08/07 07:59:17;;;;;;;14.18;4.63;;;24.30;84.50;;;;;;5074810;28;20485;-67
2022/08/07 08:01:45;;;;;;;10.60;4.82;;;24.40;84.10;;;;;;5096701;28;20035;-67
2022/08/07 08:04:12;;;;;;;8.95;4.22;;;24.70;83.70;;;;;;5096228;28;20148;-70
2022/08/07 08:06:41;;;;;;;9.25;4.65;;;25.10;82.30;;;;;;5094530;28;20442;-67
2022/08/07 08:09:08;;;;;;;9.88;4.00;;;25.50;83.10;;;;;;5096189;28;20161;-70
2022/08/07 08:11:34;;;;;;;10.50;4.18;;;26.20;81.40;;;;;;5095832;28;20020;-67
2022/08/07 08:14:00;;;;;;;9.55;4.20;;;26.90;80.20;;;;;;5096170;28;20023;-67
2022/08/07 08:16:36;;;;;;;10.45;4.85;;;27.70;78.00;;;;;;5096351;28;20024;-67
2022/08/07 08:19:06;;;;;;;9.75;5.50;;;28.70;76.40;;;;;;5096368;28;20055;-70
2022/08/07 08:27:10;;;;;;;6.88;3.97;;;31.60;70.30;;;;;;5092364;28;20039;-67
2022/08/07 08:30:00;;;;;;;8.75;3.97;;;32.70;67.60;;;;;;5095781;28;20028;-69
2022/08/07 08:32:28;;;;;;;9.90;4.07;;;33.10;66.80;;;;;;5095900;28;20032;-68
2022/08/07 08:34:57;;;;;;;5.75;3.50;;;33.90;65.10;;;;;;5096276;28;20074;-68
2022/08/07 08:37:25;;;;;;;7.20;3.90;;;34.60;63.40;;;;;;5096063;28;20165;-68
2022/08/07 08:39:53;;;;;;;6.45;3.08;;;35.10;63.00;;;;;;5095973;28;20020;-66
2022/08/07 08:43:12;;;;;;;6.90;3.30;;;35.60;62.30;;;;;;5096410;28;20471;-70
2022/08/07 08:45:47;;;;;;;4.57;2.25;;;36.20;60.30;;;;;;5053677;28;20035;-66
2022/08/07 08:48:45;;;;;;;5.38;2.78;;;36.80;60.20;;;;;;5053572;28;20025;-69
2022/08/07 08:51:23;;;;;;;6.30;2.90;;;37.30;59.30;;;;;;5089488;28;20036;-66
2022/08/07 08:54:30;;;;;;;6.22;2.70;;;37.40;58.10;;;;;;5095723;28;20058;-66
2022/08/07 08:57:00;;;;;;;5.72;2.47;;;37.70;57.60;;;;;;5095078;28;20036;-67
2022/08/07 08:59:51;;;;;;;5.88;2.65;;;37.90;56.90;;;;;;5095218;28;20425;-69
2022/08/07 09:02:33;;;;;;;3.70;2.22;;;38.20;56.40;;;;;;5094455;28;20086;-67
2022/08/07 09:05:23;;;;;;;5.20;2.78;;;38.60;55.60;;;;;;5095809;28;20476;-70
2022/08/07 09:08:13;;;;;;;7.30;2.50;;;38.70;54.90;;;;;;5095174;28;20378;-67
2022/08/07 09:10:55;;;;;;;4.38;2.13;;;38.60;54.50;;;;;;5095535;28;20028;-68
2022/08/07 09:13:35;;;;;;;5.32;1.88;;;38.50;54.20;;;;;;5095463;28;20020;-67
2022/08/07 09:16:39;;;;;;;4.33;1.63;;;38.70;53.80;;;;;;5094065;28;20073;-69
2022/08/07 09:19:34;;;;;;;4.72;1.80;;;38.90;53.00;;;;;;5095719;28;20024;-68
2022/08/07 09:22:12;;;;;;;5.07;1.95;;;38.90;52.50;;;;;;5094284;28;20460;-66
2022/08/07 09:25:08;;;;;;;6.65;2.30;;;38.90;52.10;;;;;;5083449;28;20107;-68
2022/08/07 09:27:47;;;;;;;4.53;2.08;;;38.60;52.50;;;;;;5095331;28;20469;-67
2022/08/07 09:30:13;;;;;;;5.43;2.08;;;38.70;51.80;;;;;;5095322;28;20396;-67
2022/08/07 09:32:50;;;;;;;5.45;2.22;;;38.90;51.30;;;;;;5075078;28;20024;-67
2022/08/07 09:35:46;;;;;;;3.97;1.67;;;39.10;51.70;;;;;;5075007;28;20501;-69
2022/08/07 09:38:35;;;;;;;4.75;2.20;;;39.40;50.80;;;;;;5074617;28;20370;-67
2022/08/07 09:41:22;;;;;;;5.65;1.83;;;39.40;51.20;;;;;;5093838;28;20036;-70
2022/08/07 09:44:26;;;;;;;2.60;1.60;;;39.40;51.00;;;;;;5094670;28;20020;-70
2022/08/07 09:46:57;;;;;;;3.78;1.40;;;39.50;50.50;;;;;;5072349;28;20056;-69
2022/08/07 09:50:00;;;;;;;3.30;1.83;;;39.70;50.30;;;;;;5090767;28;20036;-67
2022/08/07 09:52:39;;;;;;;4.63;1.70;;;39.70;49.80;;;;;;5094136;28;20034;-67
2022/08/07 09:55:42;;;;;;;3.10;1.63;;;39.70;49.60;;;;;;5094948;28;20016;-68
2022/08/07 09:58:51;;;;;;;6.97;2.30;;;39.80;49.00;;;;;;5074699;28;20055;-68
2022/08/07 10:01:32;;;;;;;7.68;3.65;;;40.00;49.10;;;;;;5074646;28;20033;-68
2022/08/07 10:04:07;;;;;;;6.63;2.60;;;40.00;48.70;;;;;;5074354;28;20463;-68
2022/08/07 10:06:35;;;;;;;5.32;1.90;;;40.20;48.60;;;;;;5074298;28;20016;-68
2022/08/07 10:09:21;;;;;;;5.43;1.90;;;40.30;47.40;;;;;;5072296;28;20043;-68
2022/08/07 10:12:11;;;;;;;2.53;1.40;;;40.40;47.40;;;;;;5082678;28;20016;-71
2022/08/07 10:14:59;;;;;;;3.88;1.70;;;40.60;46.00;;;;;;5093384;28;20464;-68
2022/08/07 10:18:05;;;;;;;2.90;1.90;;;40.70;47.10;;;;;;5094652;28;20034;-69
2022/08/07 10:20:40;;;;;;;3.30;1.40;;;40.50;46.80;;;;;;5088197;28;20036;-68
2022/08/07 10:23:26;;;;;;;3.97;1.30;;;40.40;46.90;;;;;;5094572;28;20032;-69
2022/08/07 10:25:57;;;;;;;2.38;1.20;;;40.40;46.10;;;;;;5094619;28;20034;-70
2022/08/07 10:28:41;;;;;;;2.22;1.33;;;40.40;45.70;;;;;;5093894;28;20044;-67
2022/08/07 10:31:31;;;;;;;2.63;1.60;;;40.40;45.50;;;;;;5092689;28;20445;-68
2022/08/07 10:34:23;;;;;;;1.83;1.50;;;40.10;45.80;;;;;;5091666;28;20433;-67
2022/08/07 10:36:57;;;;;;;1.42;1.20;;;40.00;45.60;;;;;;5091800;28;20066;-67
2022/08/07 10:39:35;;;;;;;2.15;1.30;;;40.00;45.10;;;;;;5092936;28;20060;-68
2022/08/07 10:42:33;;;;;;;3.60;1.40;;;40.20;44.40;;;;;;5091369;28;20412;-69
2022/08/07 10:45:10;;;;;;;3.47;1.52;;;40.60;45.10;;;;;;5093848;28;20114;-68
2022/08/07 10:47:46;;;;;;;3.67;1.58;;;40.70;43.90;;;;;;5094170;28;20031;-67
2022/08/07 10:50:49;;;;;;;0.90;0.90;;;40.00;44.50;;;;;;5093618;28;20040;-67
2022/08/07 10:53:28;;;;;;;2.45;1.60;;;39.90;44.40;;;;;;5075109;28;20024;-68
2022/08/07 10:56:14;;;;;;;3.15;1.70;;;40.10;45.30;;;;;;5092188;28;20020;-67
2022/08/07 10:58:55;;;;;;;3.85;1.90;;;40.40;45.70;;;;;;5093907;28;20032;-68
2022/08/07 11:01:35;;;;;;;5.15;1.65;;;40.60;45.90;;;;;;5093744;28;20031;-67
2022/08/07 11:04:16;;;;;;;4.65;1.95;;;40.70;45.80;;;;;;5093938;28;20127;-70
2022/08/07 11:06:56;;;;;;;3.63;1.52;;;40.90;45.60;;;;;;5093726;28;20024;-67
2022/08/07 11:09:27;;;;;;;4.95;1.77;;;41.00;45.70;;;;;;5093354;28;20112;-71
2022/08/07 11:11:56;;;;;;;;;;;41.00;45.50;;;;;;5093912;28;20066;-68
2022/08/07 11:14:29;;;;;;;3.17;1.50;;;41.00;45.00;;;;;;5093660;28;19906;-67
2022/08/07 11:17:04;;;;;;;3.85;1.77;;;40.90;45.20;;;;;;5093267;28;20020;-68
2022/08/07 11:19:48;;;;;;;2.00;1.38;;;40.90;46.10;;;;;;5092770;28;20440;-67
2022/08/07 11:22:34;;;;;;;2.25;1.20;;;40.70;45.30;;;;;;5085125;28;20504;-67
2022/08/07 11:25:32;;;;;;;5.82;1.88;;;40.60;45.50;;;;;;5071710;28;20450;-68
2022/08/07 11:28:15;;;;;;;4.28;1.60;;;40.30;45.50;;;;;;5083560;28;20028;-69
2022/08/07 11:30:53;;;;;;;1.60;1.50;;;40.00;45.60;;;;;;5093343;28;20016;-71
2022/08/07 11:33:46;;;;;;;2.92;1.52;;;39.90;46.30;;;;;;5093266;28;20024;-67
2022/08/07 11:36:28;;;;;;;2.63;1.38;;;39.80;45.60;;;;;;5092751;28;20024;-68
2022/08/07 11:39:21;;;;;;;4.03;1.70;;;39.70;45.50;;;;;;5092719;28;20017;-68
2022/08/07 11:42:19;;;;;;;3.72;1.73;;;39.80;45.90;;;;;;5093139;28;20457;-67
2022/08/07 11:45:03;;;;;;;4.78;1.85;;;39.80;45.60;;;;;;5077738;28;20366;-68
2022/08/07 11:47:45;;;;;;;4.05;1.65;;;39.80;45.70;;;;;;5090112;28;20024;-70
2022/08/07 11:50:21;;;;;;;2.58;1.75;;;39.80;45.60;;;;;;5092752;28;20028;-70
2022/08/07 11:53:17;;;;;;;3.65;1.80;;;39.80;46.10;;;;;;5092910;28;20020;-69
2022/08/07 11:56:06;;;;;;;5.18;2.15;;;39.70;46.10;;;;;;5093134;28;20445;-67
2022/08/07 11:58:59;;;;;;;2.75;1.70;;;39.40;46.10;;;;;;5092512;28;20055;-68
2022/08/07 12:01:44;;;;;;;7.00;2.00;;;39.30;46.30;;;;;;5092832;28;20071;-71
2022/08/07 12:04:33;;;;;;;6.55;1.45;;;39.00;46.50;;;;;;5092843;28;20016;-67
2022/08/07 12:07:20;;;;;;;2.85;1.40;;;38.90;46.40;;;;;;5092043;28;20016;-69
2022/08/07 12:10:14;;;;;;;2.85;1.70;;;38.70;46.80;;;;;;5071290;28;20042;-67
2022/08/07 12:12:44;;;;;;;2.88;1.60;;;38.40;46.80;;;;;;5091846;28;20021;-68
2022/08/07 12:15:26;;;;;;;5.20;2.25;;;38.30;46.70;;;;;;5093082;28;20024;-68
2022/08/07 12:18:17;;;;;;;5.38;1.80;;;38.00;47.00;;;;;;5092870;28;20420;-67
2022/08/07 12:20:51;;;;;;;5.47;2.20;;;37.70;47.30;;;;;;5070790;28;20093;-69
2022/08/07 12:23:51;;;;;;;4.45;2.10;;;37.50;47.40;;;;;;5089465;28;20024;-67
2022/08/07 12:26:26;;;;;;;4.82;1.58;;;37.60;47.20;;;;;;5073741;28;20042;-68
2022/08/07 12:29:30;;;;;;;4.10;1.63;;;37.80;47.30;;;;;;5092773;28;20026;-67
2022/08/07 12:32:20;;;;;;;2.45;1.70;;;38.00;47.40;;;;;;5091717;28;20457;-70
2022/08/07 12:34:48;;;;;;;4.53;1.90;;;38.30;47.40;;;;;;5092715;28;20031;-69
2022/08/07 12:37:16;;;;;;;4.20;2.00;;;38.60;47.70;;;;;;5094908;28;20414;-70
2022/08/07 12:39:45;;;;;;;2.72;1.52;;;38.70;46.60;;;;;;5095971;28;20097;-69
2022/08/07 12:42:13;;;;;;;3.20;1.77;;;38.60;46.70;;;;;;5092476;28;20036;-67
2022/08/07 12:44:42;;;;;;;3.20;2.03;;;38.40;47.40;;;;;;5094511;28;20027;-69
2022/08/07 12:47:38;;;;;;;2.97;1.70;;;37.90;47.50;;;;;;5082361;28;20112;-67
2022/08/07 12:50:37;;;;;;;4.40;2.00;;;37.40;47.70;;;;;;5077994;28;20149;-66
2022/08/07 12:53:31;;;;;;;3.40;1.77;;;36.70;48.50;;;;;;5095196;28;20047;-67
2022/08/07 12:56:11;;;;;;;2.53;1.90;;;36.00;48.80;;;;;;5095788;28;20073;-67
2022/08/07 12:58:41;;;;;;;5.85;1.92;;;35.50;49.50;;;;;;5092766;28;20046;-67
2022/08/07 13:01:34;;;;;;;4.25;1.77;;;34.90;50.20;;;;;;5075032;28;20024;-67
2022/08/07 13:04:31;;;;;;;2.33;1.55;;;34.40;50.70;;;;;;5075193;28;20020;-69
2022/08/07 13:07:24;;;;;;;3.97;1.35;;;33.60;50.50;;;;;;5075556;28;20406;-70
2022/08/07 13:10:05;;;;;;;8.02;2.10;;;33.00;51.20;;;;;;5074862;28;20089;-68
2022/08/07 13:12:42;;;;;;;4.00;1.90;;;32.30;52.40;;;;;;5085114;28;20039;-66
2022/08/07 13:15:22;;;;;;;2.78;1.55;;;31.80;53.10;;;;;;5095264;28;20020;-68
2022/08/07 13:18:03;;;;;;;5.55;1.58;;;31.30;53.20;;;;;;5094824;28;20358;-67
2022/08/07 13:20:40;;;;;;;3.88;1.50;;;30.80;54.10;;;;;;5094800;28;20038;-68
2022/08/07 13:23:08;;;;;;;3.33;1.77;;;30.30;55.20;;;;;;5095459;28;20446;-66